Gozareh, Afghanistan

10:35 PM AFT on October 23, 2014 (GMT +0430)
Herat | Change Station
CLOSE
Current Station
Airport
Location: Herat,
Elevation: 3163 ft
Nearby Weather Stations

Elev 3163 ft 34.21 °N, 62.23 °E | Updated 10 minutes ago

Clear
Clear
61 °F
Feels Like 61 °F
N
2
Wind Variable Wind from South

Today
High -- | Low -- °F
--% Chance of Precip.
Yesterday
High -- | Low -- °F
Precip. -- in
6:32 AM 5:37 PM
Waning Crescent, 0% visible
Pressure 30.15 in
Visibility -9999.0 miles
Clouds
Dew Point 43 °F
Humidity 52%
Rainfall 0.00 in
Snow Depth Not available.
UV Not available.
Pollen Not available.
Air Quality Not available.
Flu Activity Not available.
METAR OAHR 231755Z AUTO 18002KT CAVOK 16/06 Q1021

More Conditions Fewer Conditions

Pressure 30.15 in
Visibility -9999.0 miles
Clouds
Dew Point 43 °F
Humidity 52%
Rainfall 0.00 in
Snow Depth Not available.
UV Not available.
Pollen Not available.
Air Quality Not available.
Flu Activity Not available.
METAR OAHR 231755Z AUTO 18002KT CAVOK 16/06 Q1021

More Conditions Fewer Conditions

10-Day Weather Forecast

Almanac

Astronomy

Oct. 23, 2014 Rise Set
Actual Time 6:32 AM AFT 5:37 PM AFT
Civil Twilight 6:07 AM AFT 6:03 PM AFT
Nautical Twilight 5:37 AM AFT 6:32 PM AFT
Astronomical Twilight 5:08 AM AFT 7:01 PM AFT
Moon 5:49 AM AFT 5:23 PM AFT
Length of Visible Light 11h 56m
Length of Day
11h 05m
Tomorrow will be 1m 59s shorter.
Waning Crescent, 0% of the Moon is Illuminated
Today
Waning Crescent
Oct 23
New
Oct 30
First Quarter
Nov 6
Full
Nov 14
Last Quarter

Today's Extremes

Country Highs Country Lows

Community

WunderPhotos

Upload Photos

1,764,327 photos uploaded!

WunderBlogs® & News

By Dr. Jeff Masters
Director of Meteorology, Weather Underground
By Kari Strenfel
Meteorologist, Weather Underground
By Christopher C. Burt
Weather Historian, Weather Underground
October 23, 2014
October 23, 2014
October 23, 2014

Nearby

Snow Depth

Not available.

Earthquake Activity

City Distance Mag. Time & Date
No recent earthquake activity has been reported nearby.
Minimum magnitude displayed is 2.5.

Coastal Water Temperatures

Place Temperature
No Stations Reporting

Nearby Weather Stations